Time;durP1;ratioP1;P1;durP2;ratioP2;P2;SDS_P1;SDS_P2;PMS_P1;PMS_P2;Temp;Humidity;BMP_temperature;BMP_pressure;BME280_temperature;BME280_humidity;BME280_pressure;Samples;Min_cycle;Max_cycle;Signal;HPM_P1;HPM_P2
2024/03/21 00:01:36;;;;;;;11.60;6.93;;;16.70;99.90;;;;;;10020366;28;20106;-69
2024/03/21 00:06:26;;;;;;;11.35;7.55;;;16.60;99.90;;;;;;10014679;28;20026;-68
2024/03/21 00:11:17;;;;;;;11.52;7.30;;;16.50;99.90;;;;;;10020416;28;20030;-69
2024/03/21 00:16:08;;;;;;;16.10;7.80;;;16.50;99.90;;;;;;10018602;28;20033;-68
2024/03/21 00:20:58;;;;;;;11.88;6.80;;;16.40;99.90;;;;;;10024734;28;20491;-67
2024/03/21 00:25:49;;;;;;;12.57;6.90;;;16.40;99.90;;;;;;10011403;28;20397;-69
2024/03/21 00:30:41;;;;;;;12.18;7.88;;;16.30;99.90;;;;;;10020860;28;20073;-69
2024/03/21 00:35:32;;;;;;;8.93;5.22;;;16.30;99.90;;;;;;10040046;28;20049;-69
2024/03/21 00:40:22;;;;;;;7.40;5.25;;;16.30;99.90;;;;;;10018368;28;20404;-68
2024/03/21 00:45:13;;;;;;;8.93;5.05;;;16.30;99.90;;;;;;10013136;28;20073;-68
2024/03/21 00:50:08;;;;;;;8.77;5.38;;;16.20;99.90;;;;;;10017667;28;20515;-69
2024/03/21 00:54:59;;;;;;;9.15;4.53;;;16.10;99.90;;;;;;10018581;28;20029;-68
2024/03/21 00:59:50;;;;;;;8.73;4.72;;;16.10;99.90;;;;;;10016937;28;20085;-68
2024/03/21 01:04:44;;;;;;;12.63;5.18;;;16.10;99.90;;;;;;10017811;28;20092;-68
2024/03/21 01:09:34;;;;;;;6.70;4.72;;;16.00;99.90;;;;;;10019037;28;20026;-69
2024/03/21 01:14:26;;;;;;;8.13;5.00;;;16.00;99.90;;;;;;10022514;28;20022;-68
2024/03/21 01:19:16;;;;;;;6.00;4.10;;;16.00;99.90;;;;;;10017186;28;20033;-68
2024/03/21 01:24:07;;;;;;;5.90;4.10;;;16.00;99.90;;;;;;10018006;28;20057;-68
2024/03/21 01:28:58;;;;;;;6.75;4.38;;;16.00;99.90;;;;;;10019144;28;20029;-68
2024/03/21 01:33:49;;;;;;;6.30;4.07;;;15.90;99.90;;;;;;10017565;28;20056;-67
2024/03/21 01:38:40;;;;;;;5.57;4.15;;;15.90;99.90;;;;;;10017571;28;20125;-68
2024/03/21 01:43:31;;;;;;;6.00;4.00;;;15.90;99.90;;;;;;10017303;28;20117;-66
2024/03/21 01:48:22;;;;;;;5.57;3.67;;;15.90;99.90;;;;;;10017020;28;20089;-67
2024/03/21 01:53:13;;;;;;;7.03;3.67;;;15.80;99.90;;;;;;10017237;28;20112;-67
2024/03/21 01:58:07;;;;;;;4.55;3.35;;;15.80;99.90;;;;;;10016802;28;20057;-68
2024/03/21 02:02:58;;;;;;;5.22;3.95;;;15.80;99.90;;;;;;10015093;28;20483;-67
2024/03/21 02:07:53;;;;;;;4.88;3.80;;;15.70;99.90;;;;;;10015479;28;20022;-69
2024/03/21 02:12:48;;;;;;;4.45;3.05;;;15.80;99.90;;;;;;10012095;28;20026;-68
2024/03/21 02:17:39;;;;;;;7.20;3.38;;;15.70;99.90;;;;;;10016605;28;20068;-67
2024/03/21 02:22:37;;;;;;;4.72;3.05;;;15.80;99.90;;;;;;10016837;28;20065;-67
2024/03/21 02:27:28;;;;;;;6.28;3.63;;;15.70;99.90;;;;;;10024432;28;20116;-68
2024/03/21 02:32:19;;;;;;;5.00;3.25;;;15.70;99.90;;;;;;10021456;28;20064;-67
2024/03/21 02:37:09;;;;;;;4.38;3.20;;;15.70;99.90;;;;;;10016495;28;20073;-68
2024/03/21 02:42:01;;;;;;;4.68;3.13;;;15.60;99.90;;;;;;10016461;28;20038;-67
2024/03/21 02:46:51;;;;;;;4.45;2.92;;;15.70;99.90;;;;;;10014684;28;20468;-68
2024/03/21 02:51:42;;;;;;;3.70;2.67;;;15.60;99.90;;;;;;10016287;28;20022;-68
2024/03/21 02:56:33;;;;;;;6.25;3.40;;;15.60;99.90;;;;;;10016246;28;20033;-68
2024/03/21 03:01:23;;;;;;;3.88;2.90;;;15.50;99.90;;;;;;10022093;28;20037;-68
2024/03/21 03:06:19;;;;;;;4.22;2.78;;;15.50;99.90;;;;;;10022718;28;20037;-67
2024/03/21 03:11:09;;;;;;;4.85;2.83;;;15.50;99.90;;;;;;10023823;28;20022;-66
2024/03/21 03:16:00;;;;;;;3.75;2.60;;;15.50;99.90;;;;;;10022491;28;20033;-66
2024/03/21 03:20:51;;;;;;;5.22;2.83;;;15.50;99.90;;;;;;10043124;28;20026;-66
2024/03/21 03:25:42;;;;;;;3.15;2.47;;;15.50;99.90;;;;;;10023744;28;20037;-67
2024/03/21 03:30:33;;;;;;;5.72;2.72;;;15.50;99.90;;;;;;10022073;28;20488;-67
2024/03/21 03:35:41;;;;;;;2.47;2.05;;;15.40;99.90;;;;;;10020158;28;20151;-68
2024/03/21 03:40:33;;;;;;;4.90;2.75;;;15.40;99.90;;;;;;10038640;28;20053;-68
2024/03/21 03:45:24;;;;;;;4.95;2.60;;;15.40;99.90;;;;;;10020668;28;20125;-67
2024/03/21 03:50:15;;;;;;;5.20;2.88;;;15.40;99.90;;;;;;10022036;28;20034;-68
2024/03/21 03:55:06;;;;;;;7.70;2.70;;;15.50;99.90;;;;;;10020429;28;20030;-69
2024/03/21 03:59:58;;;;;;;4.65;2.75;;;15.40;99.90;;;;;;10021270;28;20510;-70
2024/03/21 04:04:48;;;;;;;5.22;3.17;;;15.50;99.90;;;;;;10009831;28;20503;-68
2024/03/21 04:09:39;;;;;;;3.72;2.95;;;15.50;99.90;;;;;;10020586;28;20041;-68
2024/03/21 04:14:30;;;;;;;5.97;3.22;;;15.50;99.90;;;;;;10019779;28;20116;-67
2024/03/21 04:19:21;;;;;;;4.65;2.60;;;15.40;99.90;;;;;;10020038;28;20123;-68
2024/03/21 04:24:11;;;;;;;3.55;2.47;;;15.50;99.90;;;;;;10020166;28;20042;-68
2024/03/21 04:29:03;;;;;;;3.13;2.47;;;15.40;99.90;;;;;;10020335;28;20610;-68
2024/03/21 04:33:54;;;;;;;4.82;2.47;;;15.50;99.90;;;;;;10029785;28;20117;-68
2024/03/21 04:38:45;;;;;;;5.28;3.78;;;15.40;99.90;;;;;;10020330;28;20056;-70
2024/03/21 04:43:35;;;;;;;5.20;3.88;;;15.40;99.90;;;;;;10019350;28;20450;-68
2024/03/21 04:48:27;;;;;;;4.93;2.85;;;15.40;99.90;;;;;;10019140;28;20319;-68
2024/03/21 04:53:17;;;;;;;7.28;3.15;;;15.40;99.90;;;;;;10017901;28;20530;-69
2024/03/21 04:58:08;;;;;;;4.63;3.03;;;15.40;99.90;;;;;;10015828;28;20020;-68
2024/03/21 05:02:58;;;;;;;6.22;3.78;;;15.40;99.90;;;;;;10018700;28;20538;-68
2024/03/21 05:07:49;;;;;;;5.60;3.05;;;15.30;99.90;;;;;;10018629;28;20496;-68
2024/03/21 05:12:40;;;;;;;4.50;2.70;;;15.40;99.90;;;;;;10018413;28;20037;-68
2024/03/21 05:17:30;;;;;;;4.10;2.42;;;15.30;99.90;;;;;;10018808;28;20026;-66
2024/03/21 05:22:21;;;;;;;3.65;2.88;;;15.40;99.90;;;;;;10017729;28;20112;-67
2024/03/21 05:27:15;;;;;;;4.97;2.80;;;15.50;99.90;;;;;;10020882;28;20493;-68
2024/03/21 05:32:06;;;;;;;6.25;2.90;;;15.40;99.90;;;;;;10022487;28;20026;-67
2024/03/21 05:36:56;;;;;;;4.60;3.15;;;15.40;99.90;;;;;;10017237;28;20100;-68
2024/03/21 05:41:47;;;;;;;3.80;2.47;;;15.30;99.90;;;;;;10017773;28;20044;-68
2024/03/21 05:46:38;;;;;;;5.82;2.88;;;15.40;99.90;;;;;;10017772;28;20044;-68
2024/03/21 05:51:29;;;;;;;6.90;3.47;;;15.40;99.90;;;;;;10033248;28;20018;-68
2024/03/21 05:56:20;;;;;;;5.53;2.90;;;15.30;99.90;;;;;;10016370;28;20040;-68
2024/03/21 06:06:05;;;;;;;5.40;3.33;;;15.30;99.90;;;;;;10009671;28;20045;-69
2024/03/21 06:10:56;;;;;;;5.07;2.90;;;15.40;99.90;;;;;;10016911;28;20385;-69
2024/03/21 06:15:46;;;;;;;8.63;3.53;;;15.30;99.90;;;;;;10016433;28;20018;-68
2024/03/21 06:20:38;;;;;;;2.75;2.40;;;15.30;99.90;;;;;;10011840;28;20034;-68
2024/03/21 06:25:28;;;;;;;3.97;2.67;;;15.40;99.90;;;;;;10014885;28;20069;-71
2024/03/21 06:30:19;;;;;;;6.13;2.95;;;15.40;99.90;;;;;;10016600;28;20061;-67
2024/03/21 06:35:10;;;;;;;3.67;2.88;;;15.40;99.90;;;;;;10022087;28;20058;-70
2024/03/21 06:40:06;;;;;;;4.10;3.03;;;15.30;99.90;;;;;;10026886;28;20504;-68
2024/03/21 06:44:56;;;;;;;5.60;3.20;;;15.40;99.90;;;;;;10023135;28;20042;-64
2024/03/21 06:49:47;;;;;;;5.07;2.95;;;15.40;99.90;;;;;;10022389;28;20435;-71
2024/03/21 06:54:40;;;;;;;4.30;2.83;;;15.40;99.90;;;;;;10023088;28;20056;-70
2024/03/21 06:59:31;;;;;;;5.43;3.10;;;15.40;99.90;;;;;;10023333;28;20029;-68
2024/03/21 07:04:21;;;;;;;4.85;3.38;;;15.50;99.90;;;;;;10022940;28;20034;-68
2024/03/21 07:09:12;;;;;;;4.38;2.85;;;15.40;99.90;;;;;;10030337;28;20026;-70
2024/03/21 07:14:05;;;;;;;7.05;3.78;;;15.50;99.90;;;;;;10022331;28;20574;-69
2024/03/21 07:18:55;;;;;;;4.63;3.10;;;15.50;99.90;;;;;;10023825;28;20490;-66
2024/03/21 07:23:46;;;;;;;3.92;3.13;;;15.60;99.90;;;;;;10024094;28;20041;-68
2024/03/21 07:28:37;;;;;;;5.72;3.58;;;15.70;99.90;;;;;;10022229;28;20030;-67
2024/03/21 07:33:27;;;;;;;5.85;3.90;;;15.70;99.90;;;;;;10024113;28;20033;-68
2024/03/21 07:38:18;;;;;;;5.43;3.45;;;15.70;99.90;;;;;;10020510;28;20049;-67
2024/03/21 07:43:09;;;;;;;6.03;3.13;;;15.70;99.90;;;;;;10019109;28;20045;-67
2024/03/21 07:47:59;;;;;;;5.13;2.88;;;15.80;99.90;;;;;;10021689;28;20529;-67
2024/03/21 07:52:50;;;;;;;4.15;3.10;;;15.80;99.90;;;;;;10020510;28;20116;-68
2024/03/21 07:57:40;;;;;;;4.25;2.85;;;15.80;99.90;;;;;;10019838;28;20152;-66
2024/03/21 08:02:31;;;;;;;5.43;2.92;;;15.90;99.90;;;;;;10021139;28;20119;-67
2024/03/21 08:07:22;;;;;;;3.17;2.33;;;15.80;99.90;;;;;;10019910;28;20060;-67
2024/03/21 08:12:12;;;;;;;7.53;2.72;;;15.80;99.90;;;;;;10021232;28;20093;-66
2024/03/21 08:17:03;;;;;;;4.10;2.80;;;15.90;99.90;;;;;;10026259;28;20030;-66
2024/03/21 08:21:54;;;;;;;5.55;2.60;;;15.80;99.90;;;;;;10019918;28;20032;-66
2024/03/21 08:26:44;;;;;;;4.88;3.15;;;15.90;99.90;;;;;;10035571;28;20049;-65
2024/03/21 08:31:35;;;;;;;5.55;2.85;;;16.00;99.90;;;;;;10025184;28;20041;-68
2024/03/21 08:36:26;;;;;;;6.38;3.00;;;16.10;99.90;;;;;;10019346;28;20061;-67
2024/03/21 08:41:17;;;;;;;5.90;2.90;;;16.20;99.90;;;;;;10019239;28;20040;-70
2024/03/21 08:46:08;;;;;;;6.18;2.50;;;16.30;99.90;;;;;;10016991;28;20052;-67
2024/03/21 08:50:59;;;;;;;3.42;2.17;;;16.30;99.90;;;;;;10018387;28;20052;-66
2024/03/21 08:55:49;;;;;;;4.05;2.63;;;16.40;99.90;;;;;;10017636;28;20030;-65
2024/03/21 09:00:40;;;;;;;2.92;2.42;;;16.50;99.90;;;;;;10018467;28;20113;-65
2024/03/21 09:05:30;;;;;;;3.20;2.35;;;16.50;99.90;;;;;;10017582;28;20667;-66
2024/03/21 09:10:21;;;;;;;3.22;2.63;;;16.50;99.90;;;;;;10020891;28;20468;-65
2024/03/21 09:15:14;;;;;;;6.78;3.50;;;16.50;99.90;;;;;;10017270;28;20562;-65
2024/03/21 09:20:05;;;;;;;6.45;4.10;;;16.40;99.90;;;;;;10016763;28;20627;-64
2024/03/21 09:24:56;;;;;;;6.40;3.75;;;16.30;99.90;;;;;;10016906;28;20372;-67
2024/03/21 09:29:46;;;;;;;5.43;4.05;;;16.30;99.90;;;;;;10021335;28;20022;-65
2024/03/21 09:34:37;;;;;;;5.20;3.33;;;16.40;99.90;;;;;;10016496;28;20034;-66
2024/03/21 09:39:28;;;;;;;5.45;3.28;;;16.50;99.90;;;;;;10016324;28;20042;-65
2024/03/21 09:44:18;;;;;;;4.28;3.22;;;16.60;99.90;;;;;;10015533;28;20046;-68
2024/03/21 09:49:12;;;;;;;4.30;3.45;;;16.80;99.90;;;;;;10014173;28;20046;-66
2024/03/21 09:54:03;;;;;;;6.13;3.13;;;16.90;99.90;;;;;;10018241;28;20041;-65
2024/03/21 09:58:54;;;;;;;5.07;2.85;;;16.90;99.90;;;;;;10015604;28;20499;-65
2024/03/21 10:03:53;;;;;;;5.55;2.78;;;16.90;99.90;;;;;;10015997;28;20037;-67
2024/03/21 10:08:44;;;;;;;5.38;2.72;;;16.90;99.90;;;;;;10021014;28;20038;-66
2024/03/21 10:13:37;;;;;;;7.45;3.35;;;16.90;99.90;;;;;;10016241;28;20018;-66
2024/03/21 10:18:28;;;;;;;6.95;4.35;;;17.00;99.90;;;;;;10015703;28;20022;-66
2024/03/21 10:23:19;;;;;;;4.95;3.15;;;17.00;99.90;;;;;;10015128;28;20034;-67
2024/03/21 10:28:16;;;;;;;5.10;3.45;;;17.10;99.90;;;;;;10009011;28;20843;-69
2024/03/21 10:33:15;;;;;;;4.15;2.90;;;17.00;99.90;;;;;;10013137;28;20057;-68
2024/03/21 10:38:14;;;;;;;5.00;2.90;;;17.10;99.90;;;;;;10013082;28;20397;-70
2024/03/21 10:43:05;;;;;;;4.78;3.08;;;17.20;99.90;;;;;;10013627;28;20034;-65
2024/03/21 10:47:56;;;;;;;6.60;2.78;;;17.20;99.90;;;;;;10012056;28;20025;-67
2024/03/21 10:52:50;;;;;;;6.72;3.63;;;17.30;99.90;;;;;;10026880;28;20088;-69
2024/03/21 10:57:48;;;;;;;5.82;2.65;;;17.30;99.90;;;;;;10015120;28;20042;-68
2024/03/21 11:02:40;;;;;;;3.67;2.45;;;17.40;99.90;;;;;;10010846;28;20503;-67
2024/03/21 11:07:31;;;;;;;4.70;3.03;;;17.40;99.90;;;;;;10014696;28;20045;-67
2024/03/21 11:12:21;;;;;;;4.30;2.67;;;17.50;99.90;;;;;;10014562;28;20033;-68
2024/03/21 11:17:15;;;;;;;3.30;2.42;;;17.60;99.90;;;;;;10014581;28;20419;-67
2024/03/21 11:22:11;;;;;;;3.28;2.88;;;17.60;99.90;;;;;;10022493;28;20061;-67
2024/03/21 11:27:02;;;;;;;3.65;2.97;;;17.50;99.90;;;;;;10015150;28;20026;-69
2024/03/21 11:31:52;;;;;;;4.05;3.03;;;17.60;99.90;;;;;;10009616;28;21434;-67
2024/03/21 11:36:43;;;;;;;3.60;2.50;;;17.70;99.90;;;;;;10005171;28;20128;-68
2024/03/21 11:41:34;;;;;;;3.72;2.30;;;17.70;99.90;;;;;;10009123;28;20057;-69
2024/03/21 11:46:25;;;;;;;3.25;2.22;;;17.80;99.90;;;;;;10004532;28;20037;-68
2024/03/21 11:51:20;;;;;;;3.15;2.10;;;17.80;99.90;;;;;;10025471;28;20046;-68
2024/03/21 11:56:10;;;;;;;7.13;3.03;;;17.90;99.90;;;;;;10011773;28;20027;-71
2024/03/21 12:01:02;;;;;;;4.32;3.03;;;18.00;99.90;;;;;;10012885;28;20021;-70
2024/03/21 12:05:52;;;;;;;4.80;2.67;;;18.10;99.90;;;;;;10006298;28;20081;-68
2024/03/21 12:10:44;;;;;;;3.60;2.13;;;18.10;99.90;;;;;;10008257;28;20050;-67
2024/03/21 12:15:34;;;;;;;3.72;2.10;;;18.30;99.90;;;;;;10027458;28;20052;-69
2024/03/21 12:20:28;;;;;;;3.17;2.25;;;18.30;99.90;;;;;;10009087;28;20055;-68
2024/03/21 12:25:18;;;;;;;3.95;1.75;;;18.40;99.90;;;;;;10008723;28;20152;-67
2024/03/21 12:30:10;;;;;;;2.60;1.63;;;18.50;99.90;;;;;;10013647;28;20146;-69
2024/03/21 12:35:00;;;;;;;2.35;1.55;;;18.60;99.90;;;;;;10006473;28;20366;-69
2024/03/21 12:39:51;;;;;;;3.75;1.70;;;18.60;99.90;;;;;;10013145;28;20058;-68
2024/03/21 12:44:42;;;;;;;3.25;1.88;;;18.70;99.90;;;;;;10019037;28;20060;-69
2024/03/21 12:49:33;;;;;;;2.85;2.08;;;18.70;99.90;;;;;;10034859;28;20025;-69
2024/03/21 12:54:24;;;;;;;3.17;1.42;;;18.90;99.90;;;;;;10018991;28;20045;-68
2024/03/21 12:59:14;;;;;;;4.55;2.22;;;19.00;99.90;;;;;;10019696;28;20028;-70
2024/03/21 13:04:05;;;;;;;2.58;1.80;;;19.00;99.90;;;;;;10008823;28;20083;-70
2024/03/21 13:08:56;;;;;;;3.38;1.63;;;19.10;99.90;;;;;;10008932;28;20065;-68
2024/03/21 13:13:46;;;;;;;2.08;1.75;;;19.20;99.90;;;;;;9999062;28;20056;-67
2024/03/21 13:18:38;;;;;;;3.45;1.52;;;19.40;99.90;;;;;;10006553;28;20096;-67
2024/03/21 13:23:29;;;;;;;4.18;2.13;;;19.40;99.90;;;;;;10007693;28;20404;-70
2024/03/21 13:28:20;;;;;;;4.00;1.95;;;19.50;99.90;;;;;;10030212;28;20027;-69
2024/03/21 13:33:11;;;;;;;3.00;1.67;;;19.50;99.90;;;;;;10004724;28;20029;-69
2024/03/21 13:38:02;;;;;;;4.50;1.80;;;19.80;99.90;;;;;;10028806;28;20059;-68
2024/03/21 13:42:54;;;;;;;4.72;1.95;;;19.90;99.90;;;;;;10011321;28;20156;-68
2024/03/21 13:47:44;;;;;;;4.65;2.58;;;20.00;99.90;;;;;;10006483;28;20113;-70
2024/03/21 13:52:36;;;;;;;2.95;2.08;;;20.10;99.90;;;;;;10016430;28;20034;-69
2024/03/21 13:57:29;;;;;;;3.08;2.20;;;20.40;99.90;;;;;;10015747;28;20109;-71
2024/03/21 14:02:24;;;;;;;4.40;2.70;;;20.50;99.90;;;;;;10014058;28;20088;-68
2024/03/21 14:07:15;;;;;;;3.97;2.55;;;20.70;99.90;;;;;;10012491;28;20472;-67
2024/03/21 14:12:06;;;;;;;2.90;2.03;;;20.90;99.90;;;;;;10016139;28;20092;-68
2024/03/21 14:16:57;;;;;;;4.43;2.67;;;21.00;99.90;;;;;;10016186;28;20026;-67
2024/03/21 14:21:47;;;;;;;3.40;2.63;;;20.90;99.90;;;;;;10026932;28;20041;-67
2024/03/21 14:26:38;;;;;;;3.97;2.53;;;20.90;99.90;;;;;;10016704;28;20104;-68
2024/03/21 14:31:30;;;;;;;3.55;2.65;;;20.90;99.90;;;;;;10021587;28;20030;-68
2024/03/21 14:36:21;;;;;;;3.75;2.30;;;20.60;99.90;;;;;;10018807;28;20046;-67
2024/03/21 14:41:12;;;;;;;5.28;3.10;;;20.70;99.90;;;;;;10015435;28;20112;-67
2024/03/21 14:46:03;;;;;;;8.30;3.50;;;20.60;99.90;;;;;;10012421;28;20049;-67
2024/03/21 14:50:53;;;;;;;6.63;3.40;;;20.40;99.90;;;;;;10021924;28;20033;-68
2024/03/21 14:55:44;;;;;;;5.65;3.58;;;20.60;99.90;;;;;;10020887;28;20029;-69
2024/03/21 15:00:35;;;;;;;6.95;4.28;;;20.90;99.90;;;;;;10023268;28;20022;-69
2024/03/21 15:05:25;;;;;;;7.25;3.40;;;21.10;99.90;;;;;;10023500;28;20084;-66
2024/03/21 15:10:16;;;;;;;5.47;3.83;;;21.10;99.90;;;;;;10045330;28;20030;-66
2024/03/21 15:15:07;;;;;;;5.88;3.85;;;21.10;99.90;;;;;;10029783;28;20044;-69
2024/03/21 15:19:58;;;;;;;4.05;3.00;;;20.90;99.90;;;;;;10021194;28;20025;-67
2024/03/21 15:24:49;;;;;;;7.28;4.05;;;21.00;99.90;;;;;;10015723;28;20045;-67
2024/03/21 15:29:39;;;;;;;6.43;3.83;;;21.40;99.90;;;;;;10023770;28;20056;-68
2024/03/21 15:34:30;;;;;;;6.00;3.95;;;21.40;99.90;;;;;;10017380;28;20045;-71
2024/03/21 15:39:21;;;;;;;5.47;3.40;;;21.50;99.90;;;;;;10019349;28;20150;-67
2024/03/21 15:44:11;;;;;;;6.47;3.42;;;21.50;99.90;;;;;;10019714;28;20066;-67
2024/03/21 15:49:02;;;;;;;8.07;4.10;;;21.60;99.80;;;;;;10015739;28;20172;-67
2024/03/21 15:53:52;;;;;;;6.63;3.85;;;21.60;99.70;;;;;;10020592;28;20040;-68
2024/03/21 15:58:43;;;;;;;7.30;5.00;;;21.20;99.80;;;;;;10021180;28;20029;-68
2024/03/21 16:03:34;;;;;;;6.20;4.15;;;20.90;99.90;;;;;;10020129;28;20045;-69
2024/03/21 16:08:25;;;;;;;7.80;4.10;;;20.70;99.90;;;;;;10020552;28;20109;-70
2024/03/21 16:13:17;;;;;;;6.65;3.63;;;20.60;99.90;;;;;;10024441;28;20800;-69
2024/03/21 16:18:08;;;;;;;4.57;3.47;;;20.40;99.90;;;;;;10019477;28;20034;-68
2024/03/21 16:22:58;;;;;;;5.85;2.92;;;20.50;99.90;;;;;;10018790;28;20108;-69
2024/03/21 16:27:49;;;;;;;4.65;2.75;;;20.50;99.90;;;;;;10020418;28;20030;-68
2024/03/21 16:32:40;;;;;;;5.88;3.47;;;20.50;99.90;;;;;;10019909;28;20029;-70
2024/03/21 16:37:32;;;;;;;5.93;3.45;;;20.50;99.90;;;;;;10024355;28;20046;-67
2024/03/21 16:42:23;;;;;;;5.20;3.20;;;20.50;99.90;;;;;;10020653;28;20065;-69
2024/03/21 16:47:14;;;;;;;8.75;3.83;;;20.40;99.90;;;;;;10015984;28;20058;-68
2024/03/21 16:52:06;;;;;;;5.68;3.50;;;20.30;99.90;;;;;;10017206;28;20125;-69
2024/03/21 16:56:56;;;;;;;7.93;4.18;;;20.20;99.90;;;;;;10013832;28;20034;-66
2024/03/21 17:01:47;;;;;;;9.80;4.72;;;20.10;99.90;;;;;;10017068;28;20526;-67
2024/03/21 17:06:38;;;;;;;7.20;3.78;;;20.00;99.90;;;;;;10017468;28;20037;-68
2024/03/21 17:11:29;;;;;;;8.20;5.18;;;20.00;99.90;;;;;;10015505;28;20018;-68
2024/03/21 17:16:20;;;;;;;9.00;3.75;;;20.00;99.90;;;;;;10015637;28;20056;-67
2024/03/21 17:21:10;;;;;;;7.65;4.68;;;19.90;99.90;;;;;;10018331;28;20040;-69
2024/03/21 17:26:02;;;;;;;9.18;4.80;;;19.80;99.90;;;;;;10017007;28;20096;-70
2024/03/21 17:30:53;;;;;;;7.57;4.20;;;19.80;99.90;;;;;;10019786;28;20037;-66
2024/03/21 17:35:43;;;;;;;7.80;4.20;;;19.60;99.90;;;;;;10016914;28;20435;-68
2024/03/21 17:40:37;;;;;;;6.93;4.90;;;19.60;99.90;;;;;;10016698;28;20059;-67
2024/03/21 17:45:28;;;;;;;6.95;4.10;;;19.50;99.90;;;;;;10014647;28;20038;-67
2024/03/21 17:50:19;;;;;;;6.00;3.67;;;19.50;99.90;;;;;;10016542;28;20420;-67
2024/03/21 17:55:09;;;;;;;6.63;4.47;;;19.50;99.90;;;;;;10016695;28;20041;-69
2024/03/21 18:00:00;;;;;;;6.40;3.80;;;19.40;99.90;;;;;;10020766;28;20021;-69
2024/03/21 18:04:51;;;;;;;6.40;4.40;;;19.40;99.90;;;;;;10032542;28;20061;-67
2024/03/21 18:09:41;;;;;;;6.40;4.43;;;19.40;99.90;;;;;;10017974;28;20030;-69
2024/03/21 18:14:34;;;;;;;8.55;4.43;;;19.30;99.90;;;;;;10016366;28;20034;-68
2024/03/21 18:19:25;;;;;;;8.00;4.32;;;19.40;99.90;;;;;;10013534;28;20140;-69
2024/03/21 18:24:16;;;;;;;5.50;3.38;;;19.30;99.90;;;;;;10014692;28;20555;-68
2024/03/21 18:29:07;;;;;;;5.15;3.40;;;19.30;99.90;;;;;;10021173;28;20407;-68
2024/03/21 18:33:58;;;;;;;8.23;3.63;;;19.40;99.90;;;;;;10028638;28;20443;-68
2024/03/21 18:38:48;;;;;;;7.03;3.58;;;19.30;99.90;;;;;;10023753;28;20104;-67
2024/03/21 18:43:39;;;;;;;5.75;3.53;;;19.30;99.90;;;;;;10024215;28;20046;-69
2024/03/21 18:48:31;;;;;;;5.38;3.42;;;19.30;99.90;;;;;;10037596;28;20026;-67
2024/03/21 18:53:22;;;;;;;8.55;3.90;;;19.30;99.90;;;;;;10022022;28;20496;-69
2024/03/21 18:58:12;;;;;;;5.07;3.70;;;19.30;99.90;;;;;;10023763;28;20113;-68
2024/03/21 19:03:04;;;;;;;8.98;3.95;;;19.30;99.90;;;;;;10024409;28;20041;-67
2024/03/21 19:07:54;;;;;;;7.50;4.45;;;19.30;99.90;;;;;;10026203;28;20096;-68
2024/03/21 19:12:45;;;;;;;8.40;4.40;;;19.20;99.90;;;;;;10026695;28;20099;-69
2024/03/21 19:17:36;;;;;;;6.60;4.10;;;19.30;99.90;;;;;;10031478;28;20026;-69
2024/03/21 19:22:27;;;;;;;6.97;4.05;;;19.20;99.90;;;;;;10021832;28;20528;-68
2024/03/21 19:27:18;;;;;;;7.38;3.95;;;19.10;99.90;;;;;;10021647;28;20034;-68
2024/03/21 19:32:09;;;;;;;7.45;4.25;;;19.10;99.90;;;;;;10021766;28;20041;-68
2024/03/21 19:37:00;;;;;;;14.65;5.85;;;19.10;99.90;;;;;;9992876;28;20136;-68
2024/03/21 19:41:50;;;;;;;8.15;4.55;;;19.00;99.90;;;;;;10023312;28;20521;-69
2024/03/21 19:46:41;;;;;;;8.63;4.70;;;19.10;99.90;;;;;;10020223;28;20088;-68
2024/03/21 19:51:32;;;;;;;10.07;4.50;;;19.00;99.90;;;;;;10019690;28;20030;-69
2024/03/21 19:56:22;;;;;;;7.90;4.47;;;19.00;99.90;;;;;;10020817;28;20036;-69
2024/03/21 20:01:13;;;;;;;8.30;5.07;;;19.10;99.90;;;;;;10021614;28;20034;-67
2024/03/21 20:06:08;;;;;;;8.57;5.28;;;19.00;99.90;;;;;;10020444;28;20038;-68
2024/03/21 20:10:58;;;;;;;12.40;6.00;;;19.00;99.90;;;;;;10022166;28;20454;-68
2024/03/21 20:15:49;;;;;;;7.43;5.40;;;18.90;99.90;;;;;;10018071;28;20264;-67
2024/03/21 20:20:40;;;;;;;8.65;5.70;;;18.90;99.90;;;;;;10019354;28;20034;-66
2024/03/21 20:25:31;;;;;;;10.00;5.95;;;18.90;99.90;;;;;;10023444;28;20029;-67
2024/03/21 20:30:22;;;;;;;8.82;5.30;;;18.90;99.90;;;;;;10028461;28;20957;-66
2024/03/21 20:35:13;;;;;;;9.57;5.72;;;18.90;99.90;;;;;;10020739;28;20033;-69
2024/03/21 20:40:06;;;;;;;10.25;5.95;;;18.80;99.90;;;;;;10020104;28;20545;-68
2024/03/21 20:44:57;;;;;;;9.10;5.95;;;18.70;99.90;;;;;;10017853;28;20054;-68
2024/03/21 20:49:48;;;;;;;10.77;6.25;;;18.70;99.90;;;;;;10018174;28;20030;-68
2024/03/21 20:54:39;;;;;;;16.88;7.80;;;18.60;99.90;;;;;;10026638;28;20034;-66
2024/03/21 20:59:30;;;;;;;11.40;6.28;;;18.50;99.90;;;;;;10019195;28;20034;-69
2024/03/21 21:04:20;;;;;;;8.65;6.38;;;18.40;99.90;;;;;;10017959;28;20048;-67
2024/03/21 21:09:11;;;;;;;13.07;6.20;;;18.40;99.90;;;;;;10017951;28;20064;-68
2024/03/21 21:14:01;;;;;;;8.57;6.05;;;18.40;99.90;;;;;;10016994;28;20121;-67
2024/03/21 21:18:55;;;;;;;11.75;6.13;;;18.40;99.90;;;;;;10017956;28;20484;-68
2024/03/21 21:23:45;;;;;;;10.27;6.57;;;18.40;99.90;;;;;;10022136;28;20049;-70
2024/03/21 21:28:38;;;;;;;11.93;6.38;;;18.40;99.90;;;;;;10022816;28;20048;-68
2024/03/21 21:33:38;;;;;;;11.30;7.00;;;18.40;99.90;;;;;;10024882;28;20030;-67
2024/03/21 21:38:33;;;;;;;8.93;5.88;;;18.30;99.90;;;;;;10024088;28;20046;-68
2024/03/21 21:43:27;;;;;;;10.60;5.95;;;18.30;99.90;;;;;;10013398;28;20046;-68
2024/03/21 21:48:18;;;;;;;11.82;6.30;;;18.30;99.90;;;;;;10017194;28;20026;-69
2024/03/21 21:53:12;;;;;;;13.88;6.45;;;18.30;99.90;;;;;;10015978;28;20038;-69
2024/03/21 21:58:03;;;;;;;11.40;5.53;;;18.30;99.90;;;;;;10016466;28;20594;-67
2024/03/21 22:02:54;;;;;;;8.18;5.95;;;18.30;99.90;;;;;;10018557;28;20060;-73
2024/03/21 22:07:44;;;;;;;10.20;5.38;;;18.20;99.90;;;;;;10016245;28;20120;-79
2024/03/21 22:12:35;;;;;;;10.48;5.15;;;18.20;99.90;;;;;;10017845;28;20067;-75
2024/03/21 22:17:25;;;;;;;11.68;6.50;;;18.20;99.90;;;;;;10012156;28;20056;-73
2024/03/21 22:22:16;;;;;;;10.23;5.80;;;18.10;99.90;;;;;;10011825;28;20053;-70
2024/03/21 22:27:07;;;;;;;12.05;6.15;;;18.10;99.90;;;;;;10023378;28;20463;-71
2024/03/21 22:31:57;;;;;;;10.98;5.35;;;18.10;99.90;;;;;;10020700;28;20041;-71
2024/03/21 22:36:48;;;;;;;7.40;4.97;;;18.00;99.90;;;;;;10004151;28;20268;-68
2024/03/21 22:41:39;;;;;;;13.45;7.13;;;18.00;99.90;;;;;;10013090;28;20034;-70
2024/03/21 22:46:30;;;;;;;9.95;6.25;;;18.00;99.90;;;;;;10013845;28;20041;-68
2024/03/21 22:51:21;;;;;;;9.23;5.10;;;18.00;99.90;;;;;;10019415;28;20026;-69
2024/03/21 22:56:12;;;;;;;11.80;5.25;;;17.90;99.90;;;;;;10019028;28;21560;-70
2024/03/21 23:01:09;;;;;;;6.80;4.60;;;17.90;99.90;;;;;;10010240;28;20431;-69
2024/03/21 23:05:59;;;;;;;10.95;5.28;;;17.80;99.90;;;;;;10021058;28;20038;-69
2024/03/21 23:10:50;;;;;;;12.85;6.35;;;17.80;99.90;;;;;;10020975;28;20029;-70
2024/03/21 23:15:41;;;;;;;11.30;5.80;;;17.80;99.90;;;;;;10020337;28;20038;-70
2024/03/21 23:20:32;;;;;;;11.50;6.32;;;17.80;99.90;;;;;;10021884;28;20025;-68
2024/03/21 23:25:22;;;;;;;11.60;6.25;;;17.70;99.90;;;;;;10021512;28;20037;-71
2024/03/21 23:30:13;;;;;;;8.20;6.05;;;17.70;99.90;;;;;;10022356;28;20618;-69
2024/03/21 23:35:04;;;;;;;8.27;5.22;;;17.70;99.90;;;;;;10029687;28;20361;-69
2024/03/21 23:39:55;;;;;;;9.73;4.97;;;17.60;99.90;;;;;;10017464;28;20646;-71
2024/03/21 23:44:46;;;;;;;8.25;5.13;;;17.60;99.90;;;;;;10019829;28;20165;-69
2024/03/21 23:49:36;;;;;;;8.02;4.38;;;17.50;99.90;;;;;;10022199;28;20107;-67
2024/03/21 23:54:27;;;;;;;8.65;5.43;;;17.50;99.90;;;;;;10018388;28;20068;-68
2024/03/21 23:59:18;;;;;;;8.95;5.32;;;17.50;99.90;;;;;;10021405;28;20033;-68
